Terminal Aerodrome Forecast
Issued by NWS Boston, MA

Home | Current Version | Previous Version | Text Only | Print | Product List | Glossary On
Versions: 1 2 3 4 5 6 7 8 9 10 11 12 13 14 15 16 17 18 19 20 21 22 23 24 25 26 27 28 29 30 31 32 33 34 35 36 37 38 39 40 41 42
000
FTUS41 KBOX 252130 AAA
TAFBDL
TAF AMD
KBDL 252130Z 2522/2624 24009KT P6SM BKN060
     FM260500 29004KT P6SM BKN050
     FM261100 35004KT 4SM -RASN OVC060
     FM261300 35004KT 2SM -SNRA OVC040
     FM261400 36005KT 2SM -SN OVC035
     FM261800 01008KT 1SM -SN OVC008
     FM262200 01012G26KT 2SM -SN OVC008=

USA.gov is the U.S. government's official web portal to all federal, state and local government web resources and services.